This is the latest recevied weather packets stored in our database for station/object CE3UOB-10. If no packets are shown the sender has not sent any weather packets the latest 10 day(s).
| Time | Temp. | Humidity | Pressure | Rain* | Wind** | Luminosity | Snow |
|---|---|---|---|---|---|---|---|
| 1777601057 | 12.78° C | 89% | 996.1 hPa | - | - | - | - |
| 1777599266 | 12.22° C | 91% | 995.6 hPa | - | - | - | - |
| 1777599257 | 12.22° C | 91% | 995.6 hPa | - | - | - | - |
| 1777597465 | 12.78° C | 87% | 995.3 hPa | - | - | - | - |
| 1777597457 | 12.78° C | 87% | 995.3 hPa | - | - | - | - |
| 1777595665 | 12.78° C | 87% | 995.3 hPa | - | - | - | - |
| 1777595657 | 12.78° C | 87% | 995.3 hPa | - | - | - | - |
| 1777593857 | 12.78° C | 87% | 995.1 hPa | - | - | - | - |
| 1777592065 | 13.89° C | 86% | 994.5 hPa | - | - | - | - |
| 1777592057 | 13.89° C | 86% | 994.5 hPa | - | - | - | - |
| 1777590263 | 13.33° C | 86% | 993.9 hPa | - | - | - | - |
| 1777590256 | 13.33° C | 86% | 993.9 hPa | - | - | - | - |
| 1777588463 | 13.33° C | 81% | 993.6 hPa | - | - | - | - |
| 1777588456 | 13.33° C | 81% | 993.6 hPa | - | - | - | - |
| 1777586663 | 15° C | 76% | 992.9 hPa | - | - | - | - |
| 1777586656 | 15° C | 76% | 992.9 hPa | - | - | - | - |
| 1777584865 | 17.22° C | 71% | 992.3 hPa | - | - | - | - |
| 1777584855 | 17.22° C | 71% | 992.3 hPa | - | - | - | - |
| 1777583055 | 18.33° C | 69% | 991.5 hPa | - | - | - | - |
| 1777581260 | 18.33° C | 68% | 991.1 hPa | - | - | - | - |
| 1777581255 | 18.33° C | 68% | 991.1 hPa | - | - | - | - |
| 1777579460 | 18.89° C | 65% | 990.9 hPa | - | - | - | - |
| 1777579454 | 18.89° C | 65% | 990.9 hPa | - | - | - | - |
| 1777577660 | 18.89° C | 67% | 990.8 hPa | - | - | - | - |
| 1777577654 | 18.89° C | 67% | 990.8 hPa | - | - | - | - |
* Rain since midnight (hover to see other rain measurements)
** Current wind speed in m/s (hover to see current wind gust speed)